createdAt,value
2023-04-12T00:00:12.537Z,1.27
2023-04-12T00:02:40.637Z,1.40
2023-04-12T00:05:09.857Z,1.38
2023-04-12T00:07:38.568Z,1.13
2023-04-12T00:10:09.678Z,1.20
2023-04-12T00:12:37.040Z,1.80
2023-04-12T00:15:05.671Z,1.33
2023-04-12T00:17:34.783Z,1.00
2023-04-12T00:20:05.707Z,1.17
2023-04-12T00:22:33.078Z,1.13
2023-04-12T00:25:00.447Z,1.20
2023-04-12T00:27:27.786Z,1.25
2023-04-12T00:29:55.194Z,1.08
2023-04-12T00:32:22.553Z,1.63
2023-04-12T00:34:49.850Z,1.35
2023-04-12T00:37:17.169Z,1.10
2023-04-12T00:39:44.478Z,1.05
2023-04-12T00:42:12.043Z,1.50
2023-04-12T00:44:39.360Z,1.40
2023-04-12T00:47:08.165Z,1.20
2023-04-12T00:49:36.029Z,1.15
2023-04-12T00:52:07.578Z,3.88
2023-04-12T00:54:35.615Z,1.50
2023-04-12T00:57:03.094Z,1.30
2023-04-12T00:59:30.701Z,1.30
2023-04-12T01:01:58.248Z,1.30
2023-04-12T01:04:26.604Z,1.33
2023-04-12T01:07:15.478Z,1.40
2023-04-12T01:09:43.426Z,1.38
2023-04-12T01:12:29.593Z,1.23
2023-04-12T01:15:06.966Z,1.63
2023-04-12T01:17:39.139Z,1.33
2023-04-12T01:20:17.071Z,1.25
2023-04-12T01:22:50.474Z,1.63
2023-04-12T01:25:26.493Z,1.70
2023-04-12T01:28:06.674Z,1.70
2023-04-12T01:30:34.552Z,1.50
2023-04-12T01:33:04.336Z,1.35
2023-04-12T01:35:34.985Z,1.85
2023-04-12T01:38:02.985Z,1.73
2023-04-12T01:40:31.427Z,1.98
2023-04-12T01:43:05.182Z,1.60
2023-04-12T01:45:32.591Z,1.60
2023-04-12T01:48:00.547Z,1.48
2023-04-12T01:50:31.697Z,1.52
2023-04-12T01:53:11.984Z,1.80
2023-04-12T01:55:40.478Z,1.73
2023-04-12T01:58:08.546Z,1.73
2023-04-12T02:00:37.743Z,1.80
2023-04-12T02:03:06.760Z,1.73
2023-04-12T02:05:34.984Z,1.70
2023-04-12T02:08:04.276Z,1.60
2023-04-12T02:10:32.322Z,1.65
2023-04-12T02:13:00.792Z,2.58
2023-04-12T02:15:31.565Z,1.98
2023-04-12T02:17:59.802Z,2.10
2023-04-12T02:20:27.471Z,1.90
2023-04-12T02:22:55.284Z,1.60
2023-04-12T02:25:22.818Z,1.50
2023-04-12T02:27:50.225Z,1.67
2023-04-12T02:30:17.725Z,1.60
2023-04-12T02:32:45.451Z,1.48
2023-04-12T02:35:14.295Z,1.70
2023-04-12T02:37:41.685Z,1.83
2023-04-12T02:40:11.147Z,1.77
2023-04-12T02:42:40.340Z,1.55
2023-04-12T02:45:08.057Z,1.83
2023-04-12T02:47:35.492Z,2.05
2023-04-12T02:50:02.987Z,1.70
2023-04-12T02:52:30.325Z,1.60
2023-04-12T02:54:58.522Z,1.60
2023-04-12T02:57:26.004Z,1.63
2023-04-12T02:59:53.529Z,1.52
2023-04-12T03:02:21.827Z,1.73
2023-04-12T03:04:51.251Z,1.70
2023-04-12T03:07:21.871Z,1.80
2023-04-12T03:09:50.627Z,1.75
2023-04-12T03:12:18.367Z,1.65
2023-04-12T03:14:45.989Z,1.55
2023-04-12T03:17:13.330Z,1.70
2023-04-12T03:19:40.707Z,1.73
2023-04-12T03:22:08.147Z,1.50
2023-04-12T03:24:35.534Z,1.60
2023-04-12T03:27:03.997Z,1.95
2023-04-12T03:29:31.683Z,1.75
2023-04-12T03:31:59.852Z,1.70
2023-04-12T03:34:32.533Z,2.97
2023-04-12T03:37:00.411Z,1.77
2023-04-12T03:39:27.831Z,1.58
2023-04-12T03:41:55.260Z,1.80
2023-04-12T03:44:22.778Z,1.80
2023-04-12T03:46:50.422Z,1.80
2023-04-12T03:49:17.936Z,2.03
2023-04-12T03:51:45.675Z,2.20
2023-04-12T03:54:13.323Z,2.17
2023-04-12T03:56:40.776Z,1.60
2023-04-12T03:59:08.166Z,1.90
2023-04-12T04:01:35.891Z,1.67
2023-04-12T04:04:03.927Z,1.70
2023-04-12T04:06:31.481Z,1.90
2023-04-12T04:08:58.989Z,2.55
2023-04-12T04:11:26.368Z,1.90
2023-04-12T04:13:53.703Z,1.70
2023-04-12T04:16:21.112Z,2.05
2023-04-12T04:18:48.482Z,2.05
2023-04-12T04:21:16.101Z,1.90
2023-04-12T04:23:48.170Z,1.67
2023-04-12T04:26:17.212Z,1.80
2023-04-12T04:28:50.407Z,1.98
2023-04-12T04:31:18.044Z,2.00
2023-04-12T04:33:45.513Z,1.83
2023-04-12T04:36:13.452Z,2.20
2023-04-12T04:38:42.196Z,2.10
2023-04-12T04:41:10.570Z,2.00
2023-04-12T04:43:40.233Z,3.88
2023-04-12T04:46:07.789Z,1.80
2023-04-12T04:48:35.250Z,1.73
2023-04-12T04:51:02.878Z,1.50
2023-04-12T04:53:30.341Z,2.05
2023-04-12T04:56:01.527Z,1.70
2023-04-12T04:58:28.938Z,2.30
2023-04-12T05:00:59.760Z,2.28
2023-04-12T05:03:30.540Z,2.58
2023-04-12T05:05:58.377Z,2.45
2023-04-12T05:08:25.822Z,1.75
2023-04-12T05:10:53.834Z,1.60
2023-04-12T05:13:22.492Z,1.92
2023-04-12T05:15:50.082Z,1.60
2023-04-12T05:18:18.357Z,2.17
2023-04-12T05:20:46.145Z,1.70
2023-04-12T05:23:13.477Z,1.35
2023-04-12T05:25:48.293Z,1.48
2023-04-12T05:28:17.481Z,1.73
2023-04-12T05:30:45.627Z,1.35
2023-04-12T05:33:13.023Z,1.83
2023-04-12T05:35:40.519Z,1.50
2023-04-12T05:38:07.975Z,1.58
2023-04-12T05:40:36.637Z,1.50
2023-04-12T05:43:03.993Z,1.30
2023-04-12T05:45:31.347Z,2.00
2023-04-12T05:47:58.722Z,1.88
2023-04-12T05:50:26.391Z,1.45
2023-04-12T05:52:53.795Z,2.47
2023-04-12T05:55:21.773Z,1.30
2023-04-12T05:57:49.166Z,2.42
2023-04-12T06:00:17.623Z,1.60
2023-04-12T06:02:46.175Z,2.20
2023-04-12T06:05:13.923Z,2.03
2023-04-12T06:07:48.397Z,1.80
2023-04-12T06:10:17.617Z,1.60
2023-04-12T06:12:45.511Z,1.50
2023-04-12T06:15:12.865Z,1.90
2023-04-12T06:17:40.196Z,2.70
2023-04-12T06:20:10.917Z,2.10
2023-04-12T06:22:38.393Z,1.45
2023-04-12T06:25:06.076Z,1.98
2023-04-12T06:27:33.402Z,1.95
2023-04-12T06:30:00.969Z,1.52
2023-04-12T06:32:28.459Z,1.50
2023-04-12T06:34:55.895Z,1.95
2023-04-12T06:37:23.220Z,1.73
2023-04-12T06:39:50.578Z,1.80
2023-04-12T06:42:18.378Z,2.88
2023-04-12T06:44:45.779Z,1.85
2023-04-12T06:47:13.248Z,1.88
2023-04-12T06:49:40.722Z,1.48
2023-04-12T06:52:08.080Z,1.50
2023-04-12T06:54:38.823Z,1.83
2023-04-12T06:57:12.098Z,1.55
2023-04-12T06:59:39.449Z,2.05
2023-04-12T07:02:07.957Z,2.70
2023-04-12T07:04:35.423Z,1.98
2023-04-12T07:07:02.773Z,2.00
2023-04-12T07:09:33.306Z,2.22
2023-04-12T07:12:02.512Z,1.35
2023-04-12T07:14:29.870Z,1.80
2023-04-12T07:16:57.238Z,2.30
2023-04-12T07:19:24.724Z,1.60
2023-04-12T07:21:52.091Z,1.85
2023-04-12T07:24:19.402Z,2.83
2023-04-12T07:26:46.869Z,2.28
2023-04-12T07:29:14.203Z,1.75
2023-04-12T07:31:41.666Z,2.30
2023-04-12T07:34:09.151Z,1.80
2023-04-12T07:36:36.569Z,1.92
2023-04-12T07:39:03.947Z,2.20
2023-04-12T07:41:31.376Z,1.83
2023-04-12T07:43:58.777Z,2.22
2023-04-12T07:46:26.391Z,2.20
2023-04-12T07:48:53.807Z,2.47
2023-04-12T07:51:21.148Z,2.58
2023-04-12T07:53:48.858Z,3.15
2023-04-12T07:56:16.622Z,2.42
2023-04-12T07:58:44.093Z,2.00
2023-04-12T08:01:13.596Z,2.70
2023-04-12T08:03:41.078Z,2.20
2023-04-12T08:06:08.761Z,2.08
2023-04-12T08:08:36.302Z,2.17
2023-04-12T08:11:05.198Z,2.08
2023-04-12T08:13:33.288Z,2.10
2023-04-12T08:16:00.735Z,2.28
2023-04-12T08:18:29.334Z,3.08
2023-04-12T08:20:57.351Z,1.40
2023-04-12T08:23:24.810Z,1.80
2023-04-12T08:25:52.138Z,2.30
2023-04-12T08:28:19.490Z,2.10
2023-04-12T08:30:46.980Z,1.35
2023-04-12T08:33:14.391Z,2.42
2023-04-12T08:35:41.713Z,2.00
2023-04-12T08:38:09.271Z,2.10
2023-04-12T08:40:36.827Z,2.60
2023-04-12T08:43:08.391Z,1.83
2023-04-12T08:45:36.759Z,2.47
2023-04-12T08:48:06.410Z,2.95
2023-04-12T08:50:33.889Z,2.33
2023-04-12T08:53:01.309Z,1.70
2023-04-12T08:55:28.778Z,2.10
2023-04-12T08:57:59.542Z,2.03
2023-04-12T09:00:27.246Z,1.70
2023-04-12T09:02:54.824Z,1.50
2023-04-12T09:05:27.995Z,1.48
2023-04-12T09:07:55.343Z,1.98
2023-04-12T09:10:33.604Z,2.28
2023-04-12T09:13:01.529Z,1.88
2023-04-12T09:15:28.936Z,2.28
2023-04-12T09:18:23.410Z,2.20
2023-04-12T09:20:50.733Z,1.70
2023-04-12T09:23:19.517Z,1.65
2023-04-12T09:25:48.552Z,1.55
2023-04-12T09:28:20.822Z,2.20
2023-04-12T09:30:54.532Z,1.52
2023-04-12T09:33:38.107Z,2.40
2023-04-12T09:36:06.569Z,2.22
2023-04-12T09:38:37.023Z,1.88
2023-04-12T09:41:21.295Z,1.63
2023-04-12T09:43:49.831Z,1.50
2023-04-12T09:46:17.286Z,1.60
2023-04-12T09:48:55.234Z,1.88
2023-04-12T09:51:29.602Z,1.80
2023-04-12T09:53:59.903Z,1.83
2023-04-12T09:56:32.491Z,1.67
2023-04-12T09:59:04.752Z,2.08
2023-04-12T10:01:38.951Z,2.33
2023-04-12T10:04:10.453Z,1.95
2023-04-12T10:06:38.220Z,1.77
2023-04-12T10:09:06.861Z,1.65
2023-04-12T10:11:34.508Z,2.03
2023-04-12T10:14:07.165Z,1.77
2023-04-12T10:16:35.289Z,1.85
2023-04-12T10:19:04.052Z,1.98
2023-04-12T10:21:31.653Z,1.63
2023-04-12T10:24:01.884Z,1.70
2023-04-12T10:26:29.431Z,1.15
2023-04-12T10:29:15.639Z,1.30
2023-04-12T10:31:43.066Z,1.55
2023-04-12T10:34:10.532Z,1.15
2023-04-12T10:36:53.985Z,2.22
2023-04-12T10:39:35.737Z,1.90
2023-04-12T10:42:18.949Z,2.10
2023-04-12T10:44:46.910Z,1.98
2023-04-12T10:47:14.352Z,2.17
2023-04-12T10:49:41.840Z,2.40
2023-04-12T10:52:09.233Z,2.10
2023-04-12T10:54:36.951Z,2.35
2023-04-12T10:57:05.421Z,1.98
2023-04-12T10:59:56.198Z,2.80
2023-04-12T11:02:23.991Z,2.35
2023-04-12T11:05:09.478Z,2.22
2023-04-12T11:10:05.445Z,2.42
2023-04-12T11:12:32.807Z,2.30
2023-04-12T11:15:06.370Z,2.38
2023-04-12T11:17:36.958Z,2.30
2023-04-12T11:20:05.747Z,2.60
2023-04-12T11:22:33.986Z,2.42
2023-04-12T11:25:02.610Z,2.53
2023-04-12T11:27:31.975Z,2.33
2023-04-12T11:30:00.464Z,3.00
2023-04-12T11:32:29.059Z,2.88
2023-04-12T11:34:57.038Z,2.83
2023-04-12T11:37:24.824Z,2.97
2023-04-12T11:39:53.462Z,2.63
2023-04-12T11:42:21.847Z,2.05
2023-04-12T11:44:57.349Z,2.25
2023-04-12T11:47:25.769Z,1.70
2023-04-12T11:49:54.592Z,2.33
2023-04-12T11:52:22.897Z,2.40
2023-04-12T11:54:51.209Z,3.20
2023-04-12T11:57:19.626Z,2.90
2023-04-12T11:59:48.274Z,2.80
2023-04-12T12:02:23.328Z,2.88
2023-04-12T12:04:52.054Z,2.88
2023-04-12T12:07:20.612Z,2.67
2023-04-12T12:09:49.781Z,2.72
2023-04-12T12:12:17.192Z,3.72
2023-04-12T12:14:45.416Z,2.72
2023-04-12T12:17:16.540Z,3.10
2023-04-12T12:19:45.354Z,2.80
2023-04-12T12:22:15.874Z,3.08
2023-04-12T12:25:01.954Z,3.83
2023-04-12T12:27:32.365Z,2.63
2023-04-12T12:30:01.803Z,3.22
2023-04-12T12:32:34.213Z,2.75
2023-04-12T12:35:01.960Z,2.80
2023-04-12T12:37:29.605Z,3.15
2023-04-12T12:40:25.716Z,2.60
2023-04-12T12:45:22.618Z,2.75
2023-04-12T12:47:52.947Z,2.80
2023-04-12T12:50:24.781Z,2.60
2023-04-12T12:52:53.011Z,3.05
2023-04-12T12:55:21.497Z,2.58
2023-04-12T12:58:02.239Z,3.08
2023-04-12T13:03:02.428Z,2.78
2023-04-12T13:05:30.538Z,3.08
2023-04-12T13:07:57.883Z,2.88
2023-04-12T13:10:26.722Z,2.58
2023-04-12T13:12:54.111Z,2.75
2023-04-12T13:15:24.286Z,2.95
2023-04-12T13:17:55.926Z,2.30
2023-04-12T13:20:24.001Z,2.85
2023-04-12T13:22:52.348Z,2.90
2023-04-12T13:25:21.646Z,3.20
2023-04-12T13:27:49.701Z,2.58
2023-04-12T13:30:17.379Z,2.03
2023-04-12T13:32:47.639Z,2.67
2023-04-12T13:35:15.079Z,2.20
2023-04-12T13:37:42.718Z,2.80
2023-04-12T13:40:10.373Z,2.70
2023-04-12T13:42:37.718Z,3.00
2023-04-12T13:45:05.593Z,2.50
2023-04-12T13:47:34.051Z,3.58
2023-04-12T13:50:04.657Z,2.88
2023-04-12T13:52:32.011Z,2.95
2023-04-12T13:54:59.820Z,3.40
2023-04-12T13:57:27.236Z,2.90
2023-04-12T13:59:54.629Z,3.60
2023-04-12T14:02:22.107Z,2.75
2023-04-12T14:04:52.276Z,3.17
2023-04-12T14:07:19.761Z,3.22
2023-04-12T14:09:48.832Z,3.30
2023-04-12T14:12:16.325Z,3.40
2023-04-12T14:14:43.815Z,3.10
2023-04-12T14:17:11.553Z,3.15
2023-04-12T14:19:38.984Z,2.53
2023-04-12T14:22:06.391Z,3.17
2023-04-12T14:24:33.805Z,3.40
2023-04-12T14:27:01.306Z,2.90
2023-04-12T14:29:28.754Z,3.15
2023-04-12T14:31:56.078Z,2.95
2023-04-12T14:34:23.450Z,4.13
2023-04-12T14:36:50.760Z,2.22
2023-04-12T14:39:18.177Z,3.53
2023-04-12T14:41:45.544Z,2.92
2023-04-12T14:44:12.949Z,2.85
2023-04-12T14:46:40.348Z,2.40
2023-04-12T14:49:07.751Z,2.90
2023-04-12T14:51:35.158Z,3.00
2023-04-12T14:54:02.664Z,2.47
2023-04-12T14:56:31.396Z,3.20
2023-04-12T14:58:59.333Z,3.35
2023-04-12T15:01:27.678Z,2.83
2023-04-12T15:03:55.677Z,3.45
2023-04-12T15:06:26.164Z,3.00
2023-04-12T15:08:57.532Z,3.30
2023-04-12T15:11:27.512Z,4.47
2023-04-12T15:13:55.657Z,3.45
2023-04-12T15:16:23.429Z,3.65
2023-04-12T15:18:52.037Z,3.17
2023-04-12T15:21:19.572Z,3.47
2023-04-12T15:23:47.562Z,3.50
2023-04-12T15:26:15.012Z,3.58
2023-04-12T15:28:42.785Z,4.10
2023-04-12T15:31:12.189Z,4.00
2023-04-12T15:33:39.621Z,4.20
2023-04-12T15:36:07.192Z,4.03
2023-04-12T15:38:41.190Z,3.63
2023-04-12T15:41:08.523Z,3.65
2023-04-12T15:43:36.056Z,3.80
2023-04-12T15:46:03.650Z,4.10
2023-04-12T15:48:31.146Z,3.60
2023-04-12T15:50:58.593Z,3.47
2023-04-12T15:53:29.910Z,3.53
2023-04-12T15:55:57.866Z,3.90
2023-04-12T15:58:27.249Z,5.10
2023-04-12T16:00:54.971Z,3.20
2023-04-12T16:03:23.847Z,3.20
2023-04-12T16:05:54.915Z,2.90
2023-04-12T16:08:22.875Z,3.67
2023-04-12T16:10:53.767Z,4.38
2023-04-12T16:13:21.641Z,4.95
2023-04-12T16:15:49.337Z,3.80
2023-04-12T16:18:17.514Z,3.70
2023-04-12T16:20:45.463Z,5.80
2023-04-12T16:23:13.580Z,3.25
2023-04-12T16:25:41.056Z,3.30
2023-04-12T16:28:08.485Z,3.30
2023-04-12T16:30:36.811Z,3.50
2023-04-12T16:33:04.294Z,3.60
2023-04-12T16:35:32.147Z,3.33
2023-04-12T16:37:59.620Z,3.80
2023-04-12T16:40:28.083Z,3.88
2023-04-12T16:42:55.505Z,3.67
2023-04-12T16:45:22.820Z,3.67
2023-04-12T16:47:50.225Z,4.20
2023-04-12T16:50:17.995Z,4.20
2023-04-12T16:52:45.491Z,3.10
2023-04-12T16:55:13.306Z,3.40
2023-04-12T16:57:41.674Z,3.13
2023-04-12T17:00:23.877Z,2.88
2023-04-12T17:02:52.109Z,3.05
2023-04-12T17:05:20.000Z,3.40
2023-04-12T17:07:51.587Z,4.45
2023-04-12T17:10:19.756Z,5.82
2023-04-12T17:12:47.774Z,4.65
2023-04-12T17:15:18.716Z,4.55
2023-04-12T17:17:50.063Z,4.10
2023-04-12T17:20:18.608Z,4.18
2023-04-12T17:22:46.284Z,5.07
2023-04-12T17:25:14.031Z,4.88
2023-04-12T17:27:41.948Z,5.97
2023-04-12T17:30:11.018Z,4.38
2023-04-12T17:32:38.596Z,3.92
2023-04-12T17:35:07.070Z,4.88
2023-04-12T17:37:35.440Z,4.65
2023-04-12T17:40:05.936Z,4.80
2023-04-12T17:42:33.362Z,4.65
2023-04-12T17:45:00.815Z,4.47
2023-04-12T17:47:28.160Z,4.25
2023-04-12T17:49:55.706Z,4.43
2023-04-12T17:52:23.044Z,4.32
2023-04-12T17:54:51.527Z,4.07
2023-04-12T17:57:18.890Z,4.30
2023-04-12T17:59:47.012Z,5.05
2023-04-12T18:02:16.434Z,4.65
2023-04-12T18:04:44.063Z,5.28
2023-04-12T18:07:12.134Z,4.57
2023-04-12T18:09:39.589Z,3.80
2023-04-12T18:12:06.992Z,1.80
2023-04-12T18:14:35.053Z,1.23
2023-04-12T18:17:02.459Z,1.02
2023-04-12T18:19:29.836Z,0.35
2023-04-12T18:21:57.310Z,0.68
2023-04-12T18:24:24.635Z,0.65
2023-04-12T18:26:52.124Z,0.60
2023-04-12T18:29:19.688Z,0.50
2023-04-12T18:31:47.154Z,0.50
2023-04-12T18:34:14.495Z,0.47
2023-04-12T18:36:42.469Z,0.50
2023-04-12T18:39:11.236Z,0.60
2023-04-12T18:41:38.666Z,0.40
2023-04-12T18:44:09.107Z,0.30
2023-04-12T18:46:36.901Z,0.63
2023-04-12T18:49:08.476Z,1.10
2023-04-12T18:51:36.390Z,0.80
2023-04-12T18:54:05.385Z,1.00
2023-04-12T18:56:32.802Z,0.47
2023-04-12T18:59:01.585Z,0.43
2023-04-12T19:01:29.083Z,0.45
2023-04-12T19:03:57.165Z,0.50
2023-04-12T19:06:24.810Z,0.70
2023-04-12T19:08:52.329Z,0.70
2023-04-12T19:11:19.715Z,0.90
2023-04-12T19:13:47.154Z,0.85
2023-04-12T19:16:14.637Z,1.00
2023-04-12T19:18:44.537Z,0.70
2023-04-12T19:21:11.966Z,0.80
2023-04-12T19:23:39.741Z,1.00
2023-04-12T19:26:07.389Z,0.93
2023-04-12T19:28:34.841Z,0.98
2023-04-12T19:31:10.376Z,1.35
2023-04-12T19:33:38.479Z,2.00
2023-04-12T19:36:05.967Z,1.90
2023-04-12T19:38:33.372Z,1.55
2023-04-12T19:41:00.783Z,1.85
2023-04-12T19:43:28.170Z,1.80
2023-04-12T19:45:57.808Z,2.05
2023-04-12T19:48:25.553Z,2.10
2023-04-12T19:50:55.283Z,2.20
2023-04-12T19:53:22.802Z,2.00
2023-04-12T19:55:50.274Z,2.22
2023-04-12T19:58:17.632Z,2.03
2023-04-12T20:00:45.352Z,2.25
2023-04-12T20:03:12.816Z,2.42
2023-04-12T20:05:43.008Z,2.55
2023-04-12T20:08:11.037Z,2.67
2023-04-12T20:10:39.099Z,2.58
2023-04-12T20:13:10.400Z,2.80
2023-04-12T20:15:39.485Z,2.60
2023-04-12T20:18:08.600Z,2.97
2023-04-12T20:20:36.147Z,3.15
2023-04-12T20:23:03.680Z,2.72
2023-04-12T20:25:33.164Z,3.50
2023-04-12T20:28:01.706Z,3.38
2023-04-12T20:30:30.254Z,3.05
2023-04-12T20:32:58.847Z,3.38
2023-04-12T20:35:26.680Z,3.00
2023-04-12T20:37:54.197Z,2.45
2023-04-12T20:40:23.432Z,2.70
2023-04-12T20:42:50.752Z,2.40
2023-04-12T20:45:18.996Z,2.55
2023-04-12T20:47:46.358Z,2.50
2023-04-12T20:50:13.842Z,2.08
2023-04-12T20:52:41.158Z,2.20
2023-04-12T20:55:08.767Z,2.38
2023-04-12T20:57:36.122Z,2.33
2023-04-12T21:00:13.063Z,3.03
2023-04-12T21:02:40.739Z,2.30
2023-04-12T21:05:08.312Z,3.15
2023-04-12T21:07:36.319Z,2.22
2023-04-12T21:10:03.625Z,2.50
2023-04-12T21:12:35.614Z,2.55
2023-04-12T21:15:03.598Z,2.35
2023-04-12T21:17:30.971Z,2.70
2023-04-12T21:19:58.500Z,3.10
2023-04-12T21:22:25.869Z,2.67
2023-04-12T21:24:53.489Z,2.75
2023-04-12T21:27:21.160Z,2.67
2023-04-12T21:29:48.588Z,3.03
2023-04-12T21:32:15.918Z,2.72
2023-04-12T21:34:43.276Z,2.65
2023-04-12T21:37:11.132Z,2.50
2023-04-12T21:39:39.492Z,2.30
2023-04-12T21:42:07.450Z,2.53
2023-04-12T21:44:34.793Z,2.72
2023-04-12T21:47:02.185Z,2.20
2023-04-12T21:49:30.412Z,2.00
2023-04-12T21:51:59.343Z,2.50
2023-04-12T21:54:29.103Z,2.70
2023-04-12T21:56:56.426Z,2.45
2023-04-12T21:59:23.892Z,2.20
2023-04-12T22:01:51.332Z,1.25
2023-04-12T22:04:18.800Z,1.13
2023-04-12T22:06:46.277Z,1.55
2023-04-12T22:09:13.622Z,1.50
2023-04-12T22:11:40.919Z,1.85
2023-04-12T22:14:08.236Z,1.50
2023-04-12T22:16:35.710Z,2.63
2023-04-12T22:19:03.489Z,3.03
2023-04-12T22:21:31.124Z,2.65
2023-04-12T22:23:58.976Z,2.58
2023-04-12T22:26:26.518Z,2.33
2023-04-12T22:28:54.475Z,2.42
2023-04-12T22:31:22.619Z,2.20
2023-04-12T22:33:50.104Z,2.90
2023-04-12T22:36:17.805Z,2.65
2023-04-12T22:38:47.696Z,2.97
2023-04-12T22:41:18.181Z,2.55
2023-04-12T22:43:47.958Z,2.60
2023-04-12T22:46:17.282Z,2.80
2023-04-12T22:48:46.090Z,3.42
2023-04-12T22:51:13.600Z,3.75
2023-04-12T22:53:41.301Z,3.30
2023-04-12T22:56:09.161Z,3.10
2023-04-12T22:58:37.521Z,3.60
2023-04-12T23:01:05.920Z,3.42
2023-04-12T23:03:33.357Z,3.35
2023-04-12T23:06:00.758Z,2.92
2023-04-12T23:08:29.392Z,3.08
2023-04-12T23:11:02.911Z,3.55
2023-04-12T23:13:33.980Z,3.20
2023-04-12T23:16:05.864Z,3.85
2023-04-12T23:18:33.389Z,3.90
2023-04-12T23:21:01.933Z,3.42
2023-04-12T23:23:29.876Z,3.22
2023-04-12T23:25:57.271Z,3.58
2023-04-12T23:28:25.961Z,2.88
2023-04-12T23:30:53.368Z,3.72
2023-04-12T23:33:21.741Z,3.65
2023-04-12T23:35:49.738Z,3.70
2023-04-12T23:38:24.631Z,3.35
2023-04-12T23:40:54.931Z,3.33
2023-04-12T23:43:22.746Z,3.53
2023-04-12T23:45:50.262Z,3.17
2023-04-12T23:48:18.450Z,3.60
2023-04-12T23:50:46.152Z,3.58
2023-04-12T23:53:14.028Z,3.47
2023-04-12T23:55:44.928Z,3.30
2023-04-12T23:58:12.301Z,3.20
